< < Back
Terminal Aerodrome Forecast


Current Version              Previous Versions:   1  2  3  4  5  6  7  8  9  

Terminal Aerodrome Forecast

683
FTUS42 KFFC 271005 AAA
TAFCSG
TAF AMD
KCSG 271005Z 2710/2806 33005KT P6SM SCT060
      TEMPO 2710/2714 BKN060
     FM271600 33010KT P6SM SCT050
     FM271900 34012G22KT P6SM FEW060
     FM280100 33006KT P6SM SCT250=



Latest METAR

817
SAUS70 KWBC 272000 RRX
MTRCSG
METAR KCSG 272051Z 36011G17KT 10SM CLR 14/M03 A2997 RMK AO2 SLP149
T01391028 53001


USA.gov is the U.S. government's official web portal to all federal, state and local government web resources and services.